Time Latitude Longitude Accuracy (66% radius in meters) Altitude (meters) Speed (km/hour) Bearing (degrees) Battery (%) GPS flag
11:17:35 57.204356 60.120967 13.936000823975 317.19061279297 0.30000001192093 264.5 33 1 delete
12:17:25 57.204367 60.120987 34.304000854492 317.5869140625 0 0 33 0 delete
11:17:13 57.204368 60.120980 30.016000747681 317.31262207031 0 0 33 1 delete
11:17:09 57.204367 60.120987 34.304000854492 317.5869140625 0 0 33 1 delete
11:17:02 57.204294 60.120811 35.375999450684 318.66979980469 0 0 33 1 delete
11:17:00 57.204273 60.120759 38.592002868652 318.70086669922 0.68000000715256 246.30000305176 33 1 delete
11:16:51 57.204267 60.120935 41.808002471924 317.8701171875 0 0 33 1 delete
12:16:42 57.204453 60.120846 35.375999450684 320.23352050781 0 0 33 0 delete
11:16:23 57.204453 60.120846 48.240001678467 318.53503417969 0 0 33 1 delete
12:16:21 57.204453 60.120846 35.375999450684 320.23352050781 0 0 33 0 delete
11:16:08 57.204453 60.120843 41.808002471924 319.61828613281 0 0 33 1 delete
11:15:49 57.204453 60.120846 35.375999450684 320.23352050781 0 0 33 1 delete
12:15:49 57.204513 60.120982 18.224000930786 329.31567382812 2.3399999141693 149.5 33 0 delete
11:15:37 57.204495 60.121003 22.512001037598 329.30853271484 2.3399999141693 149.5 33 1 delete
11:15:36 57.204513 60.120982 18.224000930786 329.31567382812 2.3399999141693 149.5 33 1 delete
11:15:24 57.204532 60.120986 9.6480007171631 329.34436035156 0.55000001192093 154.60000610352 33 1 delete
11:15:14 57.204593 60.120953 9.6480007171631 327.9072265625 1.5800000429153 134 33 1 delete
11:15:13 57.204606 60.120929 9.6480007171631 326.8125 1.4800000190735 123.69999694824 33 1 delete
11:15:04 57.204605 60.120872 9.6480007171631 327.98272705078 0.25 20.700000762939 33 1 delete
11:14:53 57.204587 60.120854 9.6480007171631 327.61614990234 0 0 33 1 delete
11:14:43 57.204573 60.120813 9.6480007171631 327.53356933594 0 0 33 1 delete
11:14:32 57.204573 60.120813 9.6480007171631 327.04187011719 0 0 33 1 delete
11:14:20 57.204573 60.120813 9.6480007171631 326.45678710938 0 0 33 1 delete
11:14:17 57.204563 60.120775 9.6480007171631 324.70599365234 0.62000000476837 65.099998474121 33 1 delete
11:14:11 57.204505 60.120640 9.6480007171631 322.28759765625 1.5299999713898 45.900001525879 33 1 delete
11:14:09 57.204479 60.120597 9.6480007171631 322.98583984375 1.3999999761581 42.799999237061 33 1 delete
11:14:05 57.204440 60.120485 10.720000267029 325.10192871094 1.7200000286102 73.800003051758 33 1 delete
11:14:01 57.204429 60.120278 10.720000267029 324.35003662109 2.0199999809265 78.900001525879 33 1 delete
11:13:57 57.204421 60.120114 10.720000267029 326.85754394531 1.539999961853 82.400001525879 33 1 delete
11:13:56 57.204418 60.120073 10.720000267029 325.09704589844 1.539999961853 87 33 1 delete
11:13:51 57.204392 60.119900 10.720000267029 326.81628417969 1.8500000238419 44.099998474121 33 1 delete
11:13:46 57.204343 60.119755 10.720000267029 325.35040283203 2.0099999904633 49.400001525879 33 1 delete
11:13:45 57.204330 60.119702 9.6480007171631 325.9072265625 2.1300001144409 40.200000762939 33 1 delete
11:13:42 57.204304 60.119568 9.6480007171631 326.55670166016 1.9500000476837 72.300003051758 33 1 delete
11:13:37 57.204270 60.119397 4.2880001068115 324.69207763672 1.8400000333786 51 33 1 delete
11:13:33 57.204228 60.119283 4.2880001068115 326.38757324219 1.7599999904633 41.900001525879 33 1 delete
11:13:32 57.204221 60.119256 4.2880001068115 325.94409179688 1.75 54.799999237061 33 1 delete
11:13:25 57.204158 60.119138 3.2160000801086 326.98498535156 1.789999961853 27.200000762939 33 1 delete
11:13:23 57.204126 60.119122 4.2880001068115 325.62194824219 1.75 25.89999961853 33 1 delete
11:13:19 57.204076 60.119057 4.2880001068115 323.47485351562 1.8300000429153 39.299999237061 33 1 delete
11:13:12 57.203990 60.118957 3.2160000801086 325.42150878906 1.7400000095367 17.60000038147 33 1 delete
11:13:10 57.203960 60.118948 3.2160000801086 326.46325683594 1.7400000095367 17.200000762939 33 1 delete
11:13:06 57.203910 60.118877 4.2880001068115 324.55822753906 1.9900000095367 52.900001525879 33 1 delete
11:12:59 57.203852 60.118726 3.2160000801086 323.82049560547 0.60000002384186 85.699996948242 33 1 delete
11:12:58 57.203849 60.118718 3.2160000801086 324.17205810547 1 88.300003051758 33 1 delete
11:12:47 57.203856 60.118576 3.2160000801086 323.3583984375 0.68999999761581 93 33 1 delete
11:12:40 57.203834 60.118549 3.2160000801086 324.17767333984 2.289999961853 108.5 33 1 delete
11:12:36 57.203874 60.118434 3.2160000801086 323.28625488281 2.789999961853 124.90000152588 33 1 delete
11:12:35 57.203887 60.118397 3.2160000801086 322.99548339844 2.9400000572205 123.19999694824 33 1 delete
11:12:25 57.203924 60.118293 3.2160000801086 323.8984375 0.74000000953674 109.59999847412 33 1 delete